sensor_id;sensor_type;location;lat;lon;timestamp;temperature;humidity
49679;DHT22;35570;48.218;16.326;2023-05-29T00:00:15;18.10;60.80
49679;DHT22;35570;48.218;16.326;2023-05-29T00:02:46;18.10;61.30
49679;DHT22;35570;48.218;16.326;2023-05-29T00:05:12;18.00;60.80
49679;DHT22;35570;48.218;16.326;2023-05-29T00:07:39;18.00;61.20
49679;DHT22;35570;48.218;16.326;2023-05-29T00:10:06;18.00;60.70
49679;DHT22;35570;48.218;16.326;2023-05-29T00:12:32;18.00;61.80
49679;DHT22;35570;48.218;16.326;2023-05-29T00:14:58;18.10;60.70
49679;DHT22;35570;48.218;16.326;2023-05-29T00:17:24;18.00;61.60
49679;DHT22;35570;48.218;16.326;2023-05-29T00:19:50;18.00;62.60
49679;DHT22;35570;48.218;16.326;2023-05-29T00:22:16;18.00;61.10
49679;DHT22;35570;48.218;16.326;2023-05-29T00:24:41;18.00;60.90
49679;DHT22;35570;48.218;16.326;2023-05-29T00:27:07;18.00;61.20
49679;DHT22;35570;48.218;16.326;2023-05-29T00:29:34;17.90;61.60
49679;DHT22;35570;48.218;16.326;2023-05-29T00:32:01;17.90;61.20
49679;DHT22;35570;48.218;16.326;2023-05-29T00:34:27;17.90;62.00
49679;DHT22;35570;48.218;16.326;2023-05-29T00:36:52;17.90;61.00
49679;DHT22;35570;48.218;16.326;2023-05-29T00:39:20;17.90;61.50
49679;DHT22;35570;48.218;16.326;2023-05-29T00:41:45;17.90;61.30
49679;DHT22;35570;48.218;16.326;2023-05-29T00:44:11;17.90;61.40
49679;DHT22;35570;48.218;16.326;2023-05-29T00:46:37;17.90;61.20
49679;DHT22;35570;48.218;16.326;2023-05-29T00:49:04;17.90;61.10
49679;DHT22;35570;48.218;16.326;2023-05-29T00:51:31;17.80;61.20
49679;DHT22;35570;48.218;16.326;2023-05-29T00:53:57;17.80;61.10
49679;DHT22;35570;48.218;16.326;2023-05-29T00:56:24;17.80;61.70
49679;DHT22;35570;48.218;16.326;2023-05-29T00:58:51;17.80;61.00
49679;DHT22;35570;48.218;16.326;2023-05-29T01:01:20;17.70;61.10
49679;DHT22;35570;48.218;16.326;2023-05-29T01:03:49;17.70;61.30
49679;DHT22;35570;48.218;16.326;2023-05-29T01:06:18;17.70;61.60
49679;DHT22;35570;48.218;16.326;2023-05-29T01:08:45;17.70;61.20
49679;DHT22;35570;48.218;16.326;2023-05-29T01:14:01;17.70;60.80
49679;DHT22;35570;48.218;16.326;2023-05-29T01:16:46;17.60;61.60
49679;DHT22;35570;48.218;16.326;2023-05-29T01:23:08;17.70;61.10
49679;DHT22;35570;48.218;16.326;2023-05-29T01:28:40;17.70;61.80
49679;DHT22;35570;48.218;16.326;2023-05-29T01:31:07;17.70;61.70
49679;DHT22;35570;48.218;16.326;2023-05-29T01:33:33;17.60;61.70
49679;DHT22;35570;48.218;16.326;2023-05-29T01:35:59;17.60;60.60
49679;DHT22;35570;48.218;16.326;2023-05-29T01:38:24;17.60;61.60
49679;DHT22;35570;48.218;16.326;2023-05-29T01:40:50;17.60;61.70
49679;DHT22;35570;48.218;16.326;2023-05-29T01:43:16;17.60;61.70
49679;DHT22;35570;48.218;16.326;2023-05-29T01:45:42;17.50;62.00
49679;DHT22;35570;48.218;16.326;2023-05-29T01:48:08;17.60;62.10
49679;DHT22;35570;48.218;16.326;2023-05-29T01:50:35;17.60;61.60
49679;DHT22;35570;48.218;16.326;2023-05-29T01:53:02;17.60;62.10
49679;DHT22;35570;48.218;16.326;2023-05-29T01:55:27;17.60;62.20
49679;DHT22;35570;48.218;16.326;2023-05-29T01:57:54;17.60;62.70
49679;DHT22;35570;48.218;16.326;2023-05-29T02:00:20;17.60;61.30
49679;DHT22;35570;48.218;16.326;2023-05-29T02:02:46;17.50;62.40
49679;DHT22;35570;48.218;16.326;2023-05-29T02:05:12;17.50;62.00
49679;DHT22;35570;48.218;16.326;2023-05-29T02:07:38;17.50;61.80
49679;DHT22;35570;48.218;16.326;2023-05-29T02:10:06;17.40;62.10
49679;DHT22;35570;48.218;16.326;2023-05-29T02:12:32;17.40;62.70
49679;DHT22;35570;48.218;16.326;2023-05-29T02:14:58;17.40;62.80
49679;DHT22;35570;48.218;16.326;2023-05-29T02:17:23;17.40;62.50
49679;DHT22;35570;48.218;16.326;2023-05-29T02:19:49;17.30;62.60
49679;DHT22;35570;48.218;16.326;2023-05-29T02:22:17;17.30;62.30
49679;DHT22;35570;48.218;16.326;2023-05-29T02:24:42;17.20;62.40
49679;DHT22;35570;48.218;16.326;2023-05-29T02:27:08;17.20;62.50
49679;DHT22;35570;48.218;16.326;2023-05-29T02:29:34;17.10;62.80
49679;DHT22;35570;48.218;16.326;2023-05-29T02:32:00;17.00;62.80
49679;DHT22;35570;48.218;16.326;2023-05-29T02:34:26;17.00;63.40
49679;DHT22;35570;48.218;16.326;2023-05-29T02:36:52;17.00;63.50
49679;DHT22;35570;48.218;16.326;2023-05-29T02:39:18;16.90;63.50
49679;DHT22;35570;48.218;16.326;2023-05-29T02:41:44;16.90;63.80
49679;DHT22;35570;48.218;16.326;2023-05-29T02:44:10;16.80;64.00
49679;DHT22;35570;48.218;16.326;2023-05-29T02:46:35;16.80;65.10
49679;DHT22;35570;48.218;16.326;2023-05-29T02:49:01;16.80;64.50
49679;DHT22;35570;48.218;16.326;2023-05-29T02:51:27;16.70;64.60
49679;DHT22;35570;48.218;16.326;2023-05-29T02:53:53;16.80;65.10
49679;DHT22;35570;48.218;16.326;2023-05-29T02:56:19;16.80;65.00
49679;DHT22;35570;48.218;16.326;2023-05-29T02:58:51;16.90;64.60
49679;DHT22;35570;48.218;16.326;2023-05-29T03:01:17;16.80;64.70
49679;DHT22;35570;48.218;16.326;2023-05-29T03:03:43;16.80;65.00
49679;DHT22;35570;48.218;16.326;2023-05-29T03:06:09;16.80;65.40
49679;DHT22;35570;48.218;16.326;2023-05-29T03:08:35;16.80;65.60
49679;DHT22;35570;48.218;16.326;2023-05-29T03:11:06;16.90;65.00
49679;DHT22;35570;48.218;16.326;2023-05-29T03:13:32;16.90;64.80
49679;DHT22;35570;48.218;16.326;2023-05-29T03:15:59;16.80;64.50
49679;DHT22;35570;48.218;16.326;2023-05-29T03:18:25;16.80;64.60
49679;DHT22;35570;48.218;16.326;2023-05-29T03:20:51;16.70;64.20
49679;DHT22;35570;48.218;16.326;2023-05-29T03:23:16;16.70;65.70
49679;DHT22;35570;48.218;16.326;2023-05-29T03:25:42;16.70;65.30
49679;DHT22;35570;48.218;16.326;2023-05-29T03:28:07;16.70;65.40
49679;DHT22;35570;48.218;16.326;2023-05-29T03:30:33;16.70;65.90
49679;DHT22;35570;48.218;16.326;2023-05-29T03:32:59;16.70;66.20
49679;DHT22;35570;48.218;16.326;2023-05-29T03:35:31;16.70;66.60
49679;DHT22;35570;48.218;16.326;2023-05-29T03:37:57;16.70;66.40
49679;DHT22;35570;48.218;16.326;2023-05-29T03:40:23;16.70;65.70
49679;DHT22;35570;48.218;16.326;2023-05-29T03:42:48;16.60;66.20
49679;DHT22;35570;48.218;16.326;2023-05-29T03:45:14;16.60;65.10
49679;DHT22;35570;48.218;16.326;2023-05-29T03:47:40;16.50;66.00
49679;DHT22;35570;48.218;16.326;2023-05-29T03:50:06;16.50;66.20
49679;DHT22;35570;48.218;16.326;2023-05-29T03:52:32;16.60;65.80
49679;DHT22;35570;48.218;16.326;2023-05-29T03:54:58;16.60;66.00
49679;DHT22;35570;48.218;16.326;2023-05-29T03:57:24;16.70;66.20
49679;DHT22;35570;48.218;16.326;2023-05-29T03:59:49;16.70;65.90
49679;DHT22;35570;48.218;16.326;2023-05-29T04:02:15;16.70;65.90
49679;DHT22;35570;48.218;16.326;2023-05-29T04:04:41;16.60;66.30
49679;DHT22;35570;48.218;16.326;2023-05-29T04:07:06;16.60;65.80
49679;DHT22;35570;48.218;16.326;2023-05-29T04:09:33;16.60;65.60
49679;DHT22;35570;48.218;16.326;2023-05-29T04:11:59;16.60;66.50
49679;DHT22;35570;48.218;16.326;2023-05-29T04:14:27;16.60;66.90
49679;DHT22;35570;48.218;16.326;2023-05-29T04:16:53;16.60;65.60
49679;DHT22;35570;48.218;16.326;2023-05-29T04:19:19;16.50;66.50
49679;DHT22;35570;48.218;16.326;2023-05-29T04:21:45;16.50;67.50
49679;DHT22;35570;48.218;16.326;2023-05-29T04:24:13;16.50;68.00
49679;DHT22;35570;48.218;16.326;2023-05-29T04:26:39;16.60;67.60
49679;DHT22;35570;48.218;16.326;2023-05-29T04:29:09;16.70;68.80
49679;DHT22;35570;48.218;16.326;2023-05-29T04:31:38;16.70;66.60
49679;DHT22;35570;48.218;16.326;2023-05-29T04:34:03;16.70;67.10
49679;DHT22;35570;48.218;16.326;2023-05-29T04:36:32;16.80;66.90
49679;DHT22;35570;48.218;16.326;2023-05-29T04:38:59;16.80;67.40
49679;DHT22;35570;48.218;16.326;2023-05-29T04:41:25;16.80;66.70
49679;DHT22;35570;48.218;16.326;2023-05-29T04:43:55;16.90;66.60
49679;DHT22;35570;48.218;16.326;2023-05-29T04:46:22;16.80;66.10
49679;DHT22;35570;48.218;16.326;2023-05-29T04:48:48;16.80;66.30
49679;DHT22;35570;48.218;16.326;2023-05-29T04:51:13;16.70;66.30
49679;DHT22;35570;48.218;16.326;2023-05-29T04:53:39;16.70;67.20
49679;DHT22;35570;48.218;16.326;2023-05-29T04:56:08;16.80;67.40
49679;DHT22;35570;48.218;16.326;2023-05-29T04:58:35;16.90;67.30
49679;DHT22;35570;48.218;16.326;2023-05-29T05:01:00;17.00;68.00
49679;DHT22;35570;48.218;16.326;2023-05-29T05:03:29;17.10;66.90
49679;DHT22;35570;48.218;16.326;2023-05-29T05:05:56;17.20;67.10
49679;DHT22;35570;48.218;16.326;2023-05-29T05:08:22;17.30;66.70
49679;DHT22;35570;48.218;16.326;2023-05-29T05:10:48;17.30;66.70
49679;DHT22;35570;48.218;16.326;2023-05-29T05:13:14;17.40;65.20
49679;DHT22;35570;48.218;16.326;2023-05-29T05:15:39;17.40;64.90
49679;DHT22;35570;48.218;16.326;2023-05-29T05:18:05;17.40;65.80
49679;DHT22;35570;48.218;16.326;2023-05-29T05:20:30;17.50;64.70
49679;DHT22;35570;48.218;16.326;2023-05-29T05:22:56;17.50;65.60
49679;DHT22;35570;48.218;16.326;2023-05-29T05:25:22;17.50;64.70
49679;DHT22;35570;48.218;16.326;2023-05-29T05:27:48;17.60;64.10
49679;DHT22;35570;48.218;16.326;2023-05-29T05:30:13;17.60;64.60
49679;DHT22;35570;48.218;16.326;2023-05-29T05:32:39;17.70;65.20
49679;DHT22;35570;48.218;16.326;2023-05-29T05:35:05;17.70;64.10
49679;DHT22;35570;48.218;16.326;2023-05-29T05:37:30;17.80;64.50
49679;DHT22;35570;48.218;16.326;2023-05-29T05:39:56;17.90;63.90
49679;DHT22;35570;48.218;16.326;2023-05-29T05:42:23;18.00;63.80
49679;DHT22;35570;48.218;16.326;2023-05-29T05:44:49;18.10;64.10
49679;DHT22;35570;48.218;16.326;2023-05-29T05:47:15;18.20;63.70
49679;DHT22;35570;48.218;16.326;2023-05-29T05:49:40;18.30;62.50
49679;DHT22;35570;48.218;16.326;2023-05-29T05:52:06;18.40;63.10
49679;DHT22;35570;48.218;16.326;2023-05-29T05:54:31;18.50;62.60
49679;DHT22;35570;48.218;16.326;2023-05-29T05:56:57;18.40;61.60
49679;DHT22;35570;48.218;16.326;2023-05-29T05:59:23;18.50;62.90
49679;DHT22;35570;48.218;16.326;2023-05-29T06:01:48;18.50;61.70
49679;DHT22;35570;48.218;16.326;2023-05-29T06:04:14;18.60;62.20
49679;DHT22;35570;48.218;16.326;2023-05-29T06:06:39;18.60;61.10
49679;DHT22;35570;48.218;16.326;2023-05-29T06:09:06;18.70;60.70
49679;DHT22;35570;48.218;16.326;2023-05-29T06:11:32;18.70;61.20
49679;DHT22;35570;48.218;16.326;2023-05-29T06:13:57;18.70;60.60
49679;DHT22;35570;48.218;16.326;2023-05-29T06:16:23;18.70;60.90
49679;DHT22;35570;48.218;16.326;2023-05-29T06:18:49;18.70;60.70
49679;DHT22;35570;48.218;16.326;2023-05-29T06:21:15;18.70;60.90
49679;DHT22;35570;48.218;16.326;2023-05-29T06:23:40;18.70;61.60
49679;DHT22;35570;48.218;16.326;2023-05-29T06:26:07;18.80;61.30
49679;DHT22;35570;48.218;16.326;2023-05-29T06:28:32;18.90;60.90
49679;DHT22;35570;48.218;16.326;2023-05-29T06:30:58;19.00;60.90
49679;DHT22;35570;48.218;16.326;2023-05-29T06:33:24;19.00;60.30
49679;DHT22;35570;48.218;16.326;2023-05-29T06:35:49;19.10;61.10
49679;DHT22;35570;48.218;16.326;2023-05-29T06:38:15;19.20;61.20
49679;DHT22;35570;48.218;16.326;2023-05-29T06:40:41;19.30;60.60
49679;DHT22;35570;48.218;16.326;2023-05-29T06:43:07;19.40;60.00
49679;DHT22;35570;48.218;16.326;2023-05-29T06:45:34;19.50;59.30
49679;DHT22;35570;48.218;16.326;2023-05-29T06:48:00;19.50;59.90
49679;DHT22;35570;48.218;16.326;2023-05-29T06:50:26;19.60;60.60
49679;DHT22;35570;48.218;16.326;2023-05-29T06:52:51;19.70;60.40
49679;DHT22;35570;48.218;16.326;2023-05-29T06:55:17;19.70;60.10
49679;DHT22;35570;48.218;16.326;2023-05-29T06:57:43;19.80;58.60
49679;DHT22;35570;48.218;16.326;2023-05-29T07:00:09;19.80;59.10
49679;DHT22;35570;48.218;16.326;2023-05-29T07:02:36;19.80;59.00
49679;DHT22;35570;48.218;16.326;2023-05-29T07:05:02;19.90;59.40
49679;DHT22;35570;48.218;16.326;2023-05-29T07:07:28;20.00;58.90
49679;DHT22;35570;48.218;16.326;2023-05-29T07:09:54;19.90;57.40
49679;DHT22;35570;48.218;16.326;2023-05-29T07:12:22;19.90;58.50
49679;DHT22;35570;48.218;16.326;2023-05-29T07:14:47;19.90;59.90
49679;DHT22;35570;48.218;16.326;2023-05-29T07:17:14;20.00;59.60
49679;DHT22;35570;48.218;16.326;2023-05-29T07:19:40;20.00;60.10
49679;DHT22;35570;48.218;16.326;2023-05-29T07:22:05;20.10;59.20
49679;DHT22;35570;48.218;16.326;2023-05-29T07:24:31;20.20;59.40
49679;DHT22;35570;48.218;16.326;2023-05-29T07:26:57;20.30;59.70
49679;DHT22;35570;48.218;16.326;2023-05-29T07:29:23;20.40;58.70
49679;DHT22;35570;48.218;16.326;2023-05-29T07:31:52;20.50;58.70
49679;DHT22;35570;48.218;16.326;2023-05-29T07:34:18;20.60;58.40
49679;DHT22;35570;48.218;16.326;2023-05-29T07:36:57;20.70;59.80
49679;DHT22;35570;48.218;16.326;2023-05-29T07:39:23;20.80;57.00
49679;DHT22;35570;48.218;16.326;2023-05-29T07:41:49;20.80;58.10
49679;DHT22;35570;48.218;16.326;2023-05-29T07:44:15;20.90;57.80
49679;DHT22;35570;48.218;16.326;2023-05-29T07:46:41;21.00;57.50
49679;DHT22;35570;48.218;16.326;2023-05-29T07:49:06;21.10;58.10
49679;DHT22;35570;48.218;16.326;2023-05-29T07:51:32;21.20;56.50
49679;DHT22;35570;48.218;16.326;2023-05-29T07:53:57;21.20;57.50
49679;DHT22;35570;48.218;16.326;2023-05-29T07:56:23;21.30;58.30
49679;DHT22;35570;48.218;16.326;2023-05-29T07:58:51;21.40;58.10
49679;DHT22;35570;48.218;16.326;2023-05-29T08:01:18;21.40;56.20
49679;DHT22;35570;48.218;16.326;2023-05-29T08:03:44;21.50;56.80
49679;DHT22;35570;48.218;16.326;2023-05-29T08:06:10;21.60;55.50
49679;DHT22;35570;48.218;16.326;2023-05-29T08:08:36;21.60;55.00
49679;DHT22;35570;48.218;16.326;2023-05-29T08:11:02;21.60;55.70
49679;DHT22;35570;48.218;16.326;2023-05-29T08:13:29;21.50;54.50
49679;DHT22;35570;48.218;16.326;2023-05-29T08:15:56;21.50;56.20
49679;DHT22;35570;48.218;16.326;2023-05-29T08:18:25;21.40;55.30
49679;DHT22;35570;48.218;16.326;2023-05-29T08:20:52;21.50;57.40
49679;DHT22;35570;48.218;16.326;2023-05-29T08:23:18;21.60;57.00
49679;DHT22;35570;48.218;16.326;2023-05-29T08:25:44;21.70;56.70
49679;DHT22;35570;48.218;16.326;2023-05-29T08:28:10;21.80;56.60
49679;DHT22;35570;48.218;16.326;2023-05-29T08:30:35;22.00;56.80
49679;DHT22;35570;48.218;16.326;2023-05-29T08:33:02;22.10;56.50
49679;DHT22;35570;48.218;16.326;2023-05-29T08:35:29;22.20;55.70
49679;DHT22;35570;48.218;16.326;2023-05-29T08:37:54;22.30;55.40
49679;DHT22;35570;48.218;16.326;2023-05-29T08:40:20;22.50;53.80
49679;DHT22;35570;48.218;16.326;2023-05-29T08:43:02;22.60;54.10
49679;DHT22;35570;48.218;16.326;2023-05-29T08:45:33;22.70;54.10
49679;DHT22;35570;48.218;16.326;2023-05-29T08:48:01;22.80;54.10
49679;DHT22;35570;48.218;16.326;2023-05-29T08:50:27;23.00;55.10
49679;DHT22;35570;48.218;16.326;2023-05-29T08:52:53;23.10;53.30
49679;DHT22;35570;48.218;16.326;2023-05-29T08:55:19;23.20;53.90
49679;DHT22;35570;48.218;16.326;2023-05-29T08:57:44;23.40;53.00
49679;DHT22;35570;48.218;16.326;2023-05-29T09:00:11;23.40;53.00
49679;DHT22;35570;48.218;16.326;2023-05-29T09:02:41;23.50;54.10
49679;DHT22;35570;48.218;16.326;2023-05-29T09:05:09;23.60;51.70
49679;DHT22;35570;48.218;16.326;2023-05-29T09:07:36;23.60;53.00
49679;DHT22;35570;48.218;16.326;2023-05-29T09:10:07;23.60;52.60
49679;DHT22;35570;48.218;16.326;2023-05-29T09:12:34;23.70;53.50
49679;DHT22;35570;48.218;16.326;2023-05-29T09:15:00;23.80;53.40
49679;DHT22;35570;48.218;16.326;2023-05-29T09:17:33;23.80;53.20
49679;DHT22;35570;48.218;16.326;2023-05-29T09:19:58;24.00;52.20
49679;DHT22;35570;48.218;16.326;2023-05-29T09:22:24;24.10;52.10
49679;DHT22;35570;48.218;16.326;2023-05-29T09:24:50;24.20;52.10
49679;DHT22;35570;48.218;16.326;2023-05-29T09:27:17;24.30;52.60
49679;DHT22;35570;48.218;16.326;2023-05-29T09:29:44;24.50;52.00
49679;DHT22;35570;48.218;16.326;2023-05-29T09:32:15;24.60;52.30
49679;DHT22;35570;48.218;16.326;2023-05-29T09:34:42;24.60;48.80
49679;DHT22;35570;48.218;16.326;2023-05-29T09:37:09;24.70;49.90
49679;DHT22;35570;48.218;16.326;2023-05-29T09:42:08;24.90;51.30
49679;DHT22;35570;48.218;16.326;2023-05-29T09:44:34;25.10;49.90
49679;DHT22;35570;48.218;16.326;2023-05-29T09:47:00;25.10;49.90
49679;DHT22;35570;48.218;16.326;2023-05-29T09:49:26;25.30;50.00
49679;DHT22;35570;48.218;16.326;2023-05-29T09:51:56;25.50;49.80
49679;DHT22;35570;48.218;16.326;2023-05-29T09:54:22;25.70;49.20
49679;DHT22;35570;48.218;16.326;2023-05-29T09:56:47;25.80;48.50
49679;DHT22;35570;48.218;16.326;2023-05-29T09:59:14;26.00;50.20
49679;DHT22;35570;48.218;16.326;2023-05-29T10:01:42;26.20;48.50
49679;DHT22;35570;48.218;16.326;2023-05-29T10:04:12;26.30;48.10
49679;DHT22;35570;48.218;16.326;2023-05-29T10:06:43;26.40;50.20
49679;DHT22;35570;48.218;16.326;2023-05-29T10:09:12;26.60;48.00
49679;DHT22;35570;48.218;16.326;2023-05-29T10:11:42;26.80;47.60
49679;DHT22;35570;48.218;16.326;2023-05-29T10:14:10;26.90;47.90
49679;DHT22;35570;48.218;16.326;2023-05-29T10:16:42;27.10;48.20
49679;DHT22;35570;48.218;16.326;2023-05-29T10:19:12;27.20;46.40
49679;DHT22;35570;48.218;16.326;2023-05-29T10:21:40;27.40;45.10
49679;DHT22;35570;48.218;16.326;2023-05-29T10:24:07;27.50;46.80
49679;DHT22;35570;48.218;16.326;2023-05-29T10:26:39;27.50;44.00
49679;DHT22;35570;48.218;16.326;2023-05-29T10:29:19;27.60;43.70
49679;DHT22;35570;48.218;16.326;2023-05-29T10:32:12;27.70;45.10
49679;DHT22;35570;48.218;16.326;2023-05-29T10:35:08;27.80;43.90
49679;DHT22;35570;48.218;16.326;2023-05-29T10:37:45;28.00;42.90
49679;DHT22;35570;48.218;16.326;2023-05-29T10:40:12;28.00;42.40
49679;DHT22;35570;48.218;16.326;2023-05-29T10:42:44;28.20;42.50
49679;DHT22;35570;48.218;16.326;2023-05-29T10:45:11;28.30;42.90
49679;DHT22;35570;48.218;16.326;2023-05-29T10:47:38;28.50;42.20
49679;DHT22;35570;48.218;16.326;2023-05-29T10:50:05;28.60;41.80
49679;DHT22;35570;48.218;16.326;2023-05-29T10:52:32;28.80;40.70
49679;DHT22;35570;48.218;16.326;2023-05-29T10:54:57;29.00;42.40
49679;DHT22;35570;48.218;16.326;2023-05-29T10:57:24;29.30;42.10
49679;DHT22;35570;48.218;16.326;2023-05-29T11:00:18;29.50;41.80
49679;DHT22;35570;48.218;16.326;2023-05-29T11:02:44;29.70;40.00
49679;DHT22;35570;48.218;16.326;2023-05-29T11:05:20;29.90;40.70
49679;DHT22;35570;48.218;16.326;2023-05-29T11:07:54;30.00;40.70
49679;DHT22;35570;48.218;16.326;2023-05-29T11:13:09;29.90;40.10
49679;DHT22;35570;48.218;16.326;2023-05-29T11:15:36;29.80;38.70
49679;DHT22;35570;48.218;16.326;2023-05-29T11:18:07;29.90;38.50
49679;DHT22;35570;48.218;16.326;2023-05-29T11:20:36;29.80;38.90
49679;DHT22;35570;48.218;16.326;2023-05-29T11:23:06;29.90;38.50
49679;DHT22;35570;48.218;16.326;2023-05-29T11:25:37;29.90;39.20
49679;DHT22;35570;48.218;16.326;2023-05-29T11:28:04;30.10;39.40
49679;DHT22;35570;48.218;16.326;2023-05-29T11:30:46;30.20;38.20
49679;DHT22;35570;48.218;16.326;2023-05-29T11:33:22;30.40;38.30
49679;DHT22;35570;48.218;16.326;2023-05-29T11:35:54;30.50;38.70
49679;DHT22;35570;48.218;16.326;2023-05-29T11:38:20;30.70;38.90
49679;DHT22;35570;48.218;16.326;2023-05-29T11:40:46;30.80;37.90
49679;DHT22;35570;48.218;16.326;2023-05-29T11:43:12;31.00;39.00
49679;DHT22;35570;48.218;16.326;2023-05-29T11:45:38;31.20;37.70
49679;DHT22;35570;48.218;16.326;2023-05-29T11:48:04;31.20;36.00
49679;DHT22;35570;48.218;16.326;2023-05-29T11:50:31;31.10;38.10
49679;DHT22;35570;48.218;16.326;2023-05-29T11:52:58;31.20;38.30
49679;DHT22;35570;48.218;16.326;2023-05-29T11:55:25;31.30;37.00
49679;DHT22;35570;48.218;16.326;2023-05-29T11:58:01;31.40;36.00
49679;DHT22;35570;48.218;16.326;2023-05-29T12:00:38;31.40;35.10
49679;DHT22;35570;48.218;16.326;2023-05-29T12:03:04;31.30;35.10
49679;DHT22;35570;48.218;16.326;2023-05-29T12:05:51;31.30;36.00
49679;DHT22;35570;48.218;16.326;2023-05-29T12:08:24;31.30;36.70
49679;DHT22;35570;48.218;16.326;2023-05-29T12:10:52;31.40;37.00
49679;DHT22;35570;48.218;16.326;2023-05-29T12:13:21;31.40;36.70
49679;DHT22;35570;48.218;16.326;2023-05-29T12:15:49;31.40;36.70
49679;DHT22;35570;48.218;16.326;2023-05-29T12:18:16;31.40;38.30
49679;DHT22;35570;48.218;16.326;2023-05-29T12:20:41;31.40;36.80
49679;DHT22;35570;48.218;16.326;2023-05-29T12:23:07;31.50;36.80
49679;DHT22;35570;48.218;16.326;2023-05-29T12:25:34;31.50;35.70
49679;DHT22;35570;48.218;16.326;2023-05-29T12:28:03;31.50;36.30
49679;DHT22;35570;48.218;16.326;2023-05-29T12:30:29;31.50;36.60
49679;DHT22;35570;48.218;16.326;2023-05-29T12:32:56;31.50;36.70
49679;DHT22;35570;48.218;16.326;2023-05-29T12:35:23;31.50;36.30
49679;DHT22;35570;48.218;16.326;2023-05-29T12:40:32;31.40;35.70
49679;DHT22;35570;48.218;16.326;2023-05-29T12:43:06;31.20;35.10
49679;DHT22;35570;48.218;16.326;2023-05-29T12:45:36;31.00;35.70
49679;DHT22;35570;48.218;16.326;2023-05-29T12:48:02;31.00;34.40
49679;DHT22;35570;48.218;16.326;2023-05-29T12:50:33;31.00;35.20
49679;DHT22;35570;48.218;16.326;2023-05-29T12:53:12;31.10;35.50
49679;DHT22;35570;48.218;16.326;2023-05-29T12:55:43;31.20;35.80
49679;DHT22;35570;48.218;16.326;2023-05-29T12:58:13;31.30;37.80
49679;DHT22;35570;48.218;16.326;2023-05-29T13:00:43;31.30;36.70
49679;DHT22;35570;48.218;16.326;2023-05-29T13:03:09;31.40;35.80
49679;DHT22;35570;48.218;16.326;2023-05-29T13:05:38;31.40;35.90
49679;DHT22;35570;48.218;16.326;2023-05-29T13:08:05;31.30;35.30
49679;DHT22;35570;48.218;16.326;2023-05-29T13:10:32;31.40;35.70
49679;DHT22;35570;48.218;16.326;2023-05-29T13:12:59;31.50;38.00
49679;DHT22;35570;48.218;16.326;2023-05-29T13:15:26;31.70;34.90
49679;DHT22;35570;48.218;16.326;2023-05-29T13:17:52;31.80;35.20
49679;DHT22;35570;48.218;16.326;2023-05-29T13:20:19;31.90;34.50
49679;DHT22;35570;48.218;16.326;2023-05-29T13:22:46;31.90;35.80
49679;DHT22;35570;48.218;16.326;2023-05-29T13:25:13;32.10;34.60
49679;DHT22;35570;48.218;16.326;2023-05-29T13:27:44;32.50;34.70
49679;DHT22;35570;48.218;16.326;2023-05-29T13:30:10;32.60;34.10
49679;DHT22;35570;48.218;16.326;2023-05-29T13:32:36;32.90;34.10
49679;DHT22;35570;48.218;16.326;2023-05-29T13:35:02;33.30;34.10
49679;DHT22;35570;48.218;16.326;2023-05-29T13:37:28;33.60;33.10
49679;DHT22;35570;48.218;16.326;2023-05-29T13:39:54;33.90;32.60
49679;DHT22;35570;48.218;16.326;2023-05-29T13:42:20;34.20;32.50
49679;DHT22;35570;48.218;16.326;2023-05-29T13:44:47;34.40;33.20
49679;DHT22;35570;48.218;16.326;2023-05-29T13:47:14;34.50;34.60
49679;DHT22;35570;48.218;16.326;2023-05-29T13:49:40;35.00;33.30
49679;DHT22;35570;48.218;16.326;2023-05-29T13:52:06;34.90;32.90
49679;DHT22;35570;48.218;16.326;2023-05-29T13:54:31;34.90;32.30
49679;DHT22;35570;48.218;16.326;2023-05-29T13:57:04;34.80;32.80
49679;DHT22;35570;48.218;16.326;2023-05-29T13:59:34;35.20;32.40
49679;DHT22;35570;48.218;16.326;2023-05-29T14:02:00;35.80;31.70
49679;DHT22;35570;48.218;16.326;2023-05-29T14:04:29;35.60;31.30
49679;DHT22;35570;48.218;16.326;2023-05-29T14:06:55;36.00;29.80
49679;DHT22;35570;48.218;16.326;2023-05-29T14:09:22;36.40;30.70
49679;DHT22;35570;48.218;16.326;2023-05-29T14:11:57;37.60;28.50
49679;DHT22;35570;48.218;16.326;2023-05-29T14:14:25;38.50;28.40
49679;DHT22;35570;48.218;16.326;2023-05-29T14:16:52;38.40;28.80
49679;DHT22;35570;48.218;16.326;2023-05-29T14:19:18;39.30;27.80
49679;DHT22;35570;48.218;16.326;2023-05-29T14:21:44;39.80;27.80
49679;DHT22;35570;48.218;16.326;2023-05-29T14:24:10;39.80;27.10
49679;DHT22;35570;48.218;16.326;2023-05-29T14:26:36;39.20;27.20
49679;DHT22;35570;48.218;16.326;2023-05-29T14:29:02;39.00;27.70
49679;DHT22;35570;48.218;16.326;2023-05-29T14:31:28;39.20;28.00
49679;DHT22;35570;48.218;16.326;2023-05-29T14:33:53;39.20;27.80
49679;DHT22;35570;48.218;16.326;2023-05-29T14:36:19;39.40;28.10
49679;DHT22;35570;48.218;16.326;2023-05-29T14:38:45;39.20;28.10
49679;DHT22;35570;48.218;16.326;2023-05-29T14:41:11;39.30;28.30
49679;DHT22;35570;48.218;16.326;2023-05-29T14:43:42;39.40;27.70
49679;DHT22;35570;48.218;16.326;2023-05-29T14:46:08;39.30;27.90
49679;DHT22;35570;48.218;16.326;2023-05-29T14:48:33;38.80;28.00
49679;DHT22;35570;48.218;16.326;2023-05-29T14:50:59;37.40;28.20
49679;DHT22;35570;48.218;16.326;2023-05-29T14:53:25;36.40;29.40
49679;DHT22;35570;48.218;16.326;2023-05-29T14:55:50;35.20;29.70
49679;DHT22;35570;48.218;16.326;2023-05-29T14:58:16;34.10;30.00
49679;DHT22;35570;48.218;16.326;2023-05-29T15:00:41;33.10;32.80
49679;DHT22;35570;48.218;16.326;2023-05-29T15:03:07;32.10;35.80
49679;DHT22;35570;48.218;16.326;2023-05-29T15:05:33;31.20;38.90
49679;DHT22;35570;48.218;16.326;2023-05-29T15:07:58;30.30;40.30
49679;DHT22;35570;48.218;16.326;2023-05-29T15:10:26;29.70;41.00
49679;DHT22;35570;48.218;16.326;2023-05-29T15:12:53;29.30;42.80
49679;DHT22;35570;48.218;16.326;2023-05-29T15:15:25;29.00;41.20
49679;DHT22;35570;48.218;16.326;2023-05-29T15:17:52;28.90;37.00
49679;DHT22;35570;48.218;16.326;2023-05-29T15:20:24;28.90;37.80
49679;DHT22;35570;48.218;16.326;2023-05-29T15:22:51;28.80;38.00
49679;DHT22;35570;48.218;16.326;2023-05-29T15:25:19;28.60;37.60
49679;DHT22;35570;48.218;16.326;2023-05-29T15:27:45;28.50;37.50
49679;DHT22;35570;48.218;16.326;2023-05-29T15:30:15;28.50;38.40
49679;DHT22;35570;48.218;16.326;2023-05-29T15:32:43;28.40;38.80